Time;durP1;ratioP1;P1;durP2;ratioP2;P2;SDS_P1;SDS_P2;PMS_P1;PMS_P2;Temp;Humidity;BMP_temperature;BMP_pressure;BME280_temperature;BME280_humidity;BME280_pressure;Samples;Min_cycle;Max_cycle;Signal;HPM_P1;HPM_P2
2021/06/12 00:01:42;;;;;;;12.57;11.48;;;17.70;99.90;;;;;;4967274;28;20050;-76
2021/06/12 00:04:09;;;;;;;12.30;11.27;;;17.70;99.90;;;;;;4961032;28;20058;-77
2021/06/12 00:06:35;;;;;;;12.55;11.35;;;17.60;99.90;;;;;;4960457;28;20039;-77
2021/06/12 00:09:01;;;;;;;15.40;11.93;;;17.60;99.90;;;;;;4977690;28;20034;-76
2021/06/12 00:11:28;;;;;;;12.32;11.13;;;17.50;99.90;;;;;;4961173;28;20027;-75
2021/06/12 00:13:54;;;;;;;12.05;11.00;;;17.40;99.90;;;;;;4958313;28;20038;-76
2021/06/12 00:16:21;;;;;;;13.13;11.85;;;17.30;99.90;;;;;;4976356;28;20038;-77
2021/06/12 00:18:47;;;;;;;13.00;11.75;;;17.20;99.90;;;;;;4958840;28;20055;-77
2021/06/12 00:21:13;;;;;;;12.18;10.95;;;17.20;99.90;;;;;;4971505;28;20039;-77
2021/06/12 00:23:40;;;;;;;13.45;12.15;;;17.20;99.90;;;;;;4956487;28;20042;-76
2021/06/12 00:26:06;;;;;;;16.13;12.50;;;17.20;99.90;;;;;;4963411;28;20035;-77
2021/06/12 00:28:32;;;;;;;12.45;11.32;;;17.30;99.90;;;;;;4962010;28;20047;-77
2021/06/12 00:30:59;;;;;;;12.73;11.55;;;17.30;99.90;;;;;;4954947;28;20047;-75
2021/06/12 00:33:25;;;;;;;13.02;11.82;;;17.30;99.90;;;;;;4959926;28;20057;-75
2021/06/12 00:35:51;;;;;;;13.32;12.02;;;17.30;99.90;;;;;;4959452;28;20058;-76
2021/06/12 00:38:17;;;;;;;12.20;11.10;;;17.40;99.90;;;;;;4956077;28;20035;-76
2021/06/12 00:40:44;;;;;;;12.85;11.60;;;17.50;99.90;;;;;;4955793;28;20035;-75
2021/06/12 00:43:10;;;;;;;13.10;11.80;;;17.50;99.90;;;;;;4955716;28;20219;-75
2021/06/12 00:45:36;;;;;;;13.18;11.93;;;17.50;99.90;;;;;;4956433;28;20043;-75
2021/06/12 00:48:03;;;;;;;13.18;11.55;;;17.40;99.90;;;;;;4957322;28;20043;-76
2021/06/12 00:50:33;;;;;;;13.60;12.50;;;17.40;99.90;;;;;;4965764;28;20039;-76
2021/06/12 00:53:00;;;;;;;13.68;12.25;;;17.30;99.90;;;;;;4955106;28;20050;-75
2021/06/12 00:55:26;;;;;;;14.43;12.20;;;17.30;99.90;;;;;;4955980;28;20035;-75
2021/06/12 00:57:53;;;;;;;12.85;11.68;;;17.20;99.90;;;;;;4955495;28;20400;-75
2021/06/12 01:00:21;;;;;;;14.43;12.93;;;17.20;99.90;;;;;;4971406;28;20030;-76
2021/06/12 01:02:48;;;;;;;13.43;12.02;;;17.20;99.90;;;;;;4956215;29;20031;-76
2021/06/12 01:05:17;;;;;;;15.63;13.10;;;17.10;99.90;;;;;;4969666;28;20046;-76
2021/06/12 01:07:44;;;;;;;13.82;12.63;;;17.00;99.90;;;;;;4970721;28;20031;-76
2021/06/12 01:10:17;;;;;;;14.40;12.85;;;17.00;99.90;;;;;;4968223;28;20050;-76
2021/06/12 01:12:52;;;;;;;13.82;12.52;;;16.90;99.90;;;;;;4958012;28;20048;-76
2021/06/12 01:15:18;;;;;;;15.00;13.48;;;16.90;99.90;;;;;;4959073;28;20046;-75
2021/06/12 01:17:47;;;;;;;17.75;13.55;;;16.80;99.90;;;;;;4962759;28;20089;-76
2021/06/12 01:20:39;;;;;;;14.68;13.20;;;16.70;99.90;;;;;;4969075;28;20042;-76
2021/06/12 01:23:11;;;;;;;13.68;12.38;;;16.80;99.90;;;;;;4964964;28;20035;-76
2021/06/12 01:25:37;;;;;;;14.80;13.43;;;16.80;99.90;;;;;;4969785;28;20047;-76
2021/06/12 01:28:40;;;;;;;13.98;12.52;;;16.70;99.90;;;;;;4954917;28;20042;-76
2021/06/12 01:31:08;;;;;;;13.10;11.85;;;16.80;99.90;;;;;;4970329;28;20058;-77
2021/06/12 01:33:37;;;;;;;14.07;12.07;;;16.80;99.90;;;;;;4965755;28;20046;-77
2021/06/12 01:36:05;;;;;;;13.15;11.85;;;16.80;99.90;;;;;;4955219;28;20046;-78
2021/06/12 01:38:43;;;;;;;13.82;12.43;;;16.60;99.90;;;;;;4950748;29;20043;-78
2021/06/12 01:41:16;;;;;;;13.50;12.30;;;16.40;99.90;;;;;;4955202;28;20596;-77
2021/06/12 01:43:43;;;;;;;14.65;12.98;;;16.40;99.90;;;;;;4971982;28;20035;-77
2021/06/12 01:46:12;;;;;;;15.18;13.73;;;16.40;99.90;;;;;;4953884;29;20035;-77
2021/06/12 01:48:42;;;;;;;13.70;12.30;;;16.40;99.90;;;;;;4971823;28;20042;-77
2021/06/12 01:51:09;;;;;;;13.77;12.38;;;16.60;99.90;;;;;;4971749;28;20046;-77
2021/06/12 01:53:38;;;;;;;13.45;12.05;;;16.60;99.90;;;;;;4963430;28;20027;-77
2021/06/12 01:56:06;;;;;;;12.38;11.27;;;16.60;99.90;;;;;;4953880;28;20409;-77
2021/06/12 01:58:34;;;;;;;13.27;12.02;;;16.50;99.90;;;;;;4954890;28;20377;-77
2021/06/12 02:01:01;;;;;;;13.40;12.27;;;16.40;99.90;;;;;;4953962;28;20054;-77
2021/06/12 02:03:29;;;;;;;14.00;12.38;;;16.30;99.90;;;;;;4954376;28;20035;-77
2021/06/12 02:05:58;;;;;;;13.73;12.52;;;16.30;99.90;;;;;;4954386;28;20047;-77
2021/06/12 02:08:25;;;;;;;13.50;12.18;;;16.30;99.90;;;;;;4969427;28;20034;-77
2021/06/12 02:10:52;;;;;;;13.68;12.38;;;16.40;99.90;;;;;;4957576;28;20389;-78
2021/06/12 02:13:22;;;;;;;11.77;10.75;;;16.50;99.90;;;;;;4953901;28;20445;-77
2021/06/12 02:15:53;;;;;;;;;;;16.60;99.90;;;;;;4954625;28;20031;-77
2021/06/12 02:18:20;;;;;;;;;;;16.50;99.90;;;;;;4959424;28;20368;-77
2021/06/12 02:20:50;;;;;;;13.32;12.02;;;16.50;99.90;;;;;;4965564;28;19918;-75
2021/06/12 02:23:22;;;;;;;13.55;12.35;;;16.30;99.90;;;;;;4953813;28;20473;-75
2021/06/12 02:25:50;;;;;;;13.40;12.00;;;16.20;99.90;;;;;;4954977;28;20449;-75
2021/06/12 02:28:17;;;;;;;12.93;11.77;;;16.10;99.90;;;;;;4973359;28;20027;-76
2021/06/12 02:30:50;;;;;;;12.60;11.50;;;16.10;99.90;;;;;;4956194;28;20058;-76
2021/06/12 02:33:19;;;;;;;13.38;12.25;;;16.10;99.90;;;;;;4953503;28;20042;-76
2021/06/12 02:35:46;;;;;;;13.23;12.10;;;16.10;99.90;;;;;;4956893;28;20053;-76
2021/06/12 02:38:12;;;;;;;15.07;13.57;;;16.20;99.90;;;;;;4960359;28;20042;-76
2021/06/12 02:40:39;;;;;;;15.15;13.15;;;16.20;99.90;;;;;;4954200;28;20042;-76
2021/06/12 02:43:05;;;;;;;13.60;12.35;;;16.20;99.90;;;;;;4968373;28;20050;-76
2021/06/12 02:45:31;;;;;;;14.05;12.70;;;16.40;99.90;;;;;;4959366;28;20477;-76
2021/06/12 02:48:05;;;;;;;12.98;11.88;;;16.40;99.90;;;;;;4953530;28;20035;-76
2021/06/12 02:50:35;;;;;;;14.90;12.30;;;16.40;99.90;;;;;;4954138;28;20445;-76
2021/06/12 02:53:07;;;;;;;13.13;11.93;;;16.40;99.90;;;;;;4953362;28;20038;-76
2021/06/12 02:55:37;;;;;;;14.40;12.93;;;16.40;99.90;;;;;;4953821;28;20132;-76
2021/06/12 02:58:06;;;;;;;13.10;11.90;;;16.40;99.90;;;;;;4953106;28;20036;-76
2021/06/12 03:00:34;;;;;;;14.45;13.18;;;16.40;99.90;;;;;;4953003;28;20046;-77
2021/06/12 03:03:01;;;;;;;14.18;12.77;;;16.40;99.90;;;;;;4953179;28;20031;-76
2021/06/12 03:05:30;;;;;;;13.77;12.50;;;16.40;99.90;;;;;;4953057;28;20044;-77
2021/06/12 03:07:58;;;;;;;13.77;12.55;;;16.20;99.90;;;;;;4953497;28;20043;-77
2021/06/12 03:10:27;;;;;;;13.85;12.65;;;16.20;99.90;;;;;;4953896;28;20039;-77
2021/06/12 03:12:55;;;;;;;12.70;11.60;;;16.10;99.90;;;;;;4957316;28;20050;-76
2021/06/12 03:15:22;;;;;;;14.30;12.88;;;16.00;99.90;;;;;;4967764;28;20039;-77
2021/06/12 03:17:51;;;;;;;13.25;12.15;;;15.90;99.90;;;;;;4953639;28;20054;-77
2021/06/12 03:20:19;;;;;;;14.45;13.00;;;15.80;99.90;;;;;;4953299;28;20036;-76
2021/06/12 03:22:48;;;;;;;13.48;12.23;;;15.80;99.90;;;;;;4953312;28;20393;-77
2021/06/12 03:25:18;;;;;;;13.30;12.20;;;15.80;99.90;;;;;;4953248;28;20035;-77
2021/06/12 03:27:45;;;;;;;15.43;13.20;;;15.80;99.90;;;;;;4965946;28;20039;-77
2021/06/12 03:30:13;;;;;;;13.90;12.60;;;15.90;99.90;;;;;;4956894;28;20070;-75
2021/06/12 03:32:40;;;;;;;13.55;12.32;;;16.00;99.90;;;;;;4971181;28;20049;-77
2021/06/12 03:35:09;;;;;;;13.73;12.48;;;15.90;99.90;;;;;;4956739;28;20031;-77
2021/06/12 03:37:36;;;;;;;12.77;11.50;;;15.90;99.90;;;;;;4963863;28;20047;-76
2021/06/12 03:40:04;;;;;;;13.43;12.13;;;16.00;99.90;;;;;;4960652;28;20035;-77
2021/06/12 03:42:30;;;;;;;14.55;13.00;;;16.00;99.90;;;;;;4958263;28;20468;-76
2021/06/12 03:44:58;;;;;;;13.18;11.98;;;16.00;99.90;;;;;;4964822;28;20030;-75
2021/06/12 03:47:25;;;;;;;15.05;12.25;;;16.00;99.90;;;;;;4960314;28;20050;-76
2021/06/12 03:49:52;;;;;;;14.35;12.95;;;16.00;99.90;;;;;;4958019;28;20476;-77
2021/06/12 03:52:23;;;;;;;14.48;13.18;;;16.10;99.90;;;;;;4961090;28;20050;-76
2021/06/12 03:54:51;;;;;;;13.82;12.55;;;16.10;99.90;;;;;;4964886;28;20027;-76
2021/06/12 03:57:19;;;;;;;13.82;12.43;;;16.20;99.90;;;;;;4955953;28;20573;-76
2021/06/12 03:59:45;;;;;;;12.82;11.73;;;16.20;99.90;;;;;;4956875;28;20058;-76
2021/06/12 04:02:15;;;;;;;13.30;12.13;;;16.20;99.90;;;;;;4959465;28;20023;-76
2021/06/12 04:04:44;;;;;;;12.67;11.47;;;16.30;99.90;;;;;;4975334;28;20026;-76
2021/06/12 04:07:10;;;;;;;12.25;11.25;;;16.30;99.90;;;;;;4956263;28;20038;-76
2021/06/12 04:09:40;;;;;;;12.23;11.02;;;16.30;99.90;;;;;;4956805;28;20031;-76
2021/06/12 04:12:07;;;;;;;11.25;10.18;;;16.50;99.90;;;;;;4958876;28;20027;-75
2021/06/12 04:14:33;;;;;;;12.73;11.48;;;16.60;99.90;;;;;;4974846;28;20473;-77
2021/06/12 04:17:00;;;;;;;11.27;10.20;;;16.70;99.90;;;;;;4973420;28;20042;-77
2021/06/12 04:19:26;;;;;;;11.68;10.57;;;16.80;99.90;;;;;;4962354;28;20039;-77
2021/06/12 04:21:53;;;;;;;10.93;9.93;;;16.90;99.90;;;;;;4956813;28;20042;-77
2021/06/12 04:24:19;;;;;;;11.43;10.40;;;17.10;99.90;;;;;;4973196;28;20035;-75
2021/06/12 04:26:45;;;;;;;10.57;9.52;;;17.50;99.90;;;;;;4972674;28;20039;-75
2021/06/12 04:29:11;;;;;;;12.38;9.63;;;17.90;99.90;;;;;;4968075;28;20043;-75
2021/06/12 04:31:38;;;;;;;9.90;9.00;;;18.20;99.90;;;;;;4955928;28;20054;-75
2021/06/12 04:34:05;;;;;;;10.00;8.40;;;18.40;99.90;;;;;;4955972;28;20388;-76
2021/06/12 04:36:31;;;;;;;9.23;8.32;;;18.80;99.90;;;;;;4965452;28;20042;-76
2021/06/12 04:38:57;;;;;;;8.45;7.75;;;19.20;99.90;;;;;;4965716;28;20062;-76
2021/06/12 04:41:23;;;;;;;8.65;7.78;;;19.50;99.90;;;;;;4955664;28;20035;-76
2021/06/12 04:43:50;;;;;;;7.88;6.97;;;19.50;99.90;;;;;;4956188;28;20043;-76
2021/06/12 04:46:16;;;;;;;10.02;8.18;;;19.40;99.90;;;;;;4955393;28;20043;-76
2021/06/12 04:48:42;;;;;;;9.05;8.32;;;19.30;99.90;;;;;;4973785;28;20043;-76
2021/06/12 04:51:08;;;;;;;10.00;9.00;;;19.10;99.90;;;;;;4964675;28;20035;-76
2021/06/12 04:53:35;;;;;;;10.25;9.32;;;19.60;99.90;;;;;;4959091;28;20047;-77
2021/06/12 04:56:01;;;;;;;11.02;9.90;;;20.60;99.90;;;;;;4955237;28;20405;-77
2021/06/12 04:58:27;;;;;;;10.80;9.80;;;22.30;99.90;;;;;;4955663;28;20050;-78
2021/06/12 05:00:53;;;;;;;13.45;11.27;;;22.90;96.90;;;;;;4955167;28;20397;-79
2021/06/12 05:03:20;;;;;;;11.20;10.07;;;22.80;95.00;;;;;;4955545;28;20086;-78
2021/06/12 05:05:48;;;;;;;9.18;8.38;;;23.20;94.30;;;;;;4956095;28;20476;-77
2021/06/12 05:08:17;;;;;;;10.70;9.32;;;23.60;92.60;;;;;;4955314;28;20062;-77
2021/06/12 05:10:44;;;;;;;13.48;10.65;;;23.40;92.30;;;;;;4970419;28;20035;-77
2021/06/12 05:13:10;;;;;;;12.57;11.27;;;23.20;92.30;;;;;;4972181;28;20399;-77
2021/06/12 05:15:36;;;;;;;12.15;11.05;;;22.80;92.50;;;;;;4965429;28;20035;-77
2021/06/12 05:18:05;;;;;;;12.05;10.93;;;22.50;92.90;;;;;;4959368;28;20051;-76
2021/06/12 05:20:35;;;;;;;11.40;10.10;;;23.10;92.60;;;;;;4968929;28;20366;-77
2021/06/12 05:23:03;;;;;;;10.88;9.88;;;23.80;91.10;;;;;;4954958;28;20066;-73
2021/06/12 05:25:34;;;;;;;11.52;10.35;;;24.80;88.70;;;;;;4955469;28;20481;-77
2021/06/12 05:28:00;;;;;;;10.73;9.82;;;25.40;84.00;;;;;;4954726;28;20152;-74
2021/06/12 05:30:26;;;;;;;10.05;9.15;;;25.50;80.50;;;;;;4955118;28;20047;-75
2021/06/12 05:32:53;;;;;;;9.73;8.73;;;24.60;81.50;;;;;;4955220;28;20027;-76
2021/06/12 05:35:20;;;;;;;9.43;8.68;;;23.70;85.00;;;;;;4954872;28;20119;-76
2021/06/12 05:37:46;;;;;;;10.30;9.35;;;24.30;83.30;;;;;;4969233;28;20391;-75
2021/06/12 05:40:13;;;;;;;9.18;8.48;;;24.30;85.30;;;;;;4960491;28;20040;-75
2021/06/12 05:42:39;;;;;;;9.35;8.35;;;25.30;81.10;;;;;;4954863;28;20083;-75
2021/06/12 05:45:09;;;;;;;8.70;7.95;;;25.90;78.20;;;;;;4954439;28;20479;-74
2021/06/12 05:47:36;;;;;;;9.43;8.23;;;26.00;76.70;;;;;;4970040;28;20042;-75
2021/06/12 05:50:04;;;;;;;10.27;9.27;;;25.50;76.00;;;;;;4955244;28;20050;-75
2021/06/12 05:52:30;;;;;;;10.32;8.73;;;24.50;79.60;;;;;;4967215;28;20042;-75
2021/06/12 05:54:56;;;;;;;10.57;9.52;;;23.50;82.30;;;;;;4954374;28;20023;-73
2021/06/12 05:57:22;;;;;;;10.00;9.20;;;23.90;82.90;;;;;;4956379;28;20716;-73
2021/06/12 05:59:48;;;;;;;10.38;8.38;;;25.20;79.50;;;;;;4969190;28;20046;-73
2021/06/12 06:02:15;;;;;;;9.63;8.80;;;26.80;74.90;;;;;;4964436;28;20047;-74
2021/06/12 06:04:41;;;;;;;9.32;8.35;;;27.20;71.80;;;;;;4972915;28;20495;-73
2021/06/12 06:07:07;;;;;;;9.35;8.48;;;26.60;72.70;;;;;;4960173;28;20038;-74
2021/06/12 06:09:34;;;;;;;9.27;8.07;;;25.80;74.40;;;;;;4954443;28;20100;-74
2021/06/12 06:12:00;;;;;;;8.35;7.65;;;25.80;74.30;;;;;;4954026;28;20042;-74
2021/06/12 06:14:26;;;;;;;9.43;8.38;;;25.70;75.20;;;;;;4953923;28;20046;-74
2021/06/12 06:16:52;;;;;;;9.05;7.82;;;25.80;74.70;;;;;;4954235;28;20035;-74
2021/06/12 06:19:19;;;;;;;11.40;8.55;;;26.30;71.20;;;;;;4953488;28;20043;-73
2021/06/12 06:21:45;;;;;;;8.82;8.10;;;26.00;72.20;;;;;;4953860;28;20039;-73
2021/06/12 06:24:11;;;;;;;8.85;7.97;;;25.70;72.90;;;;;;4953342;28;20059;-73
2021/06/12 06:26:37;;;;;;;8.75;7.43;;;25.70;73.50;;;;;;4954379;28;20042;-73
2021/06/12 06:29:04;;;;;;;8.52;7.72;;;25.40;73.40;;;;;;4952206;28;20031;-73
2021/06/12 06:31:30;;;;;;;8.40;7.60;;;24.60;75.20;;;;;;4968903;28;20417;-73
2021/06/12 06:33:57;;;;;;;7.80;7.00;;;25.00;75.00;;;;;;4953860;28;20051;-72
2021/06/12 06:36:26;;;;;;;9.13;6.35;;;25.30;74.40;;;;;;4969672;28;20046;-73
2021/06/12 06:38:52;;;;;;;7.80;5.10;;;25.30;73.20;;;;;;4960557;28;20062;-75
2021/06/12 06:41:18;;;;;;;5.68;5.00;;;25.60;70.20;;;;;;4968189;28;20051;-73
2021/06/12 06:43:48;;;;;;;6.07;5.35;;;25.50;71.70;;;;;;4966444;28;20058;-73
2021/06/12 06:46:14;;;;;;;7.45;5.40;;;24.90;72.50;;;;;;4971823;28;20046;-73
2021/06/12 06:48:40;;;;;;;8.20;4.55;;;24.80;71.70;;;;;;4978003;28;20384;-73
2021/06/12 06:51:06;;;;;;;4.88;4.25;;;25.10;71.80;;;;;;4963416;28;20054;-73
2021/06/12 06:53:33;;;;;;;4.47;4.03;;;24.80;71.20;;;;;;4953971;28;20043;-74
2021/06/12 06:56:04;;;;;;;7.28;5.20;;;24.20;72.30;;;;;;4956529;28;20458;-74
2021/06/12 06:58:31;;;;;;;6.05;4.10;;;24.20;74.10;;;;;;4952638;28;20051;-75
2021/06/12 07:00:57;;;;;;;6.00;4.20;;;24.50;72.90;;;;;;4969602;28;20035;-74
2021/06/12 07:03:24;;;;;;;6.30;3.88;;;24.90;71.80;;;;;;4953090;28;20039;-74
2021/06/12 07:05:52;;;;;;;6.95;4.57;;;24.90;71.50;;;;;;4967302;28;20389;-75
2021/06/12 07:08:18;;;;;;;4.68;4.18;;;25.20;71.60;;;;;;4955352;28;20038;-75
2021/06/12 07:10:44;;;;;;;5.82;4.60;;;25.30;71.30;;;;;;4965250;28;20039;-74
2021/06/12 07:13:11;;;;;;;5.40;3.75;;;25.30;71.10;;;;;;4966460;28;20035;-74
2021/06/12 07:15:37;;;;;;;8.02;3.80;;;25.40;71.20;;;;;;4953470;29;20043;-75
2021/06/12 07:18:03;;;;;;;5.18;4.40;;;25.00;71.70;;;;;;4969103;28;20035;-74
2021/06/12 07:20:30;;;;;;;7.85;4.75;;;25.50;71.20;;;;;;4953613;28;20036;-75
2021/06/12 07:22:56;;;;;;;8.57;4.65;;;25.80;69.60;;;;;;4955308;28;20042;-75
2021/06/12 07:25:22;;;;;;;8.18;4.38;;;26.50;68.70;;;;;;4956922;28;20034;-75
2021/06/12 07:27:48;;;;;;;4.53;3.88;;;26.00;68.50;;;;;;4957220;28;20058;-76
2021/06/12 07:30:15;;;;;;;6.63;4.97;;;27.00;68.20;;;;;;4956359;29;20055;-76
2021/06/12 07:32:42;;;;;;;6.78;4.82;;;27.10;66.60;;;;;;4971399;28;20031;-76
2021/06/12 07:35:09;;;;;;;5.95;4.55;;;27.00;66.30;;;;;;4956064;28;20477;-75
2021/06/12 07:37:35;;;;;;;6.97;4.47;;;26.90;67.40;;;;;;4957060;28;20895;-75
2021/06/12 07:40:03;;;;;;;7.35;4.90;;;26.60;67.40;;;;;;4969637;28;20043;-74
2021/06/12 07:42:29;;;;;;;5.13;4.25;;;25.60;69.00;;;;;;4975655;28;20035;-75
2021/06/12 07:44:56;;;;;;;5.80;3.97;;;25.50;70.40;;;;;;4974059;28;20043;-75
2021/06/12 07:47:22;;;;;;;7.60;4.60;;;25.40;71.20;;;;;;4974836;28;20092;-75
2021/06/12 07:49:48;;;;;;;9.02;4.20;;;24.90;72.20;;;;;;4961468;28;20055;-75
2021/06/12 07:52:15;;;;;;;6.15;4.63;;;24.90;73.10;;;;;;4969980;28;20050;-75
2021/06/12 07:54:41;;;;;;;5.50;5.00;;;24.60;73.00;;;;;;4960781;28;20397;-75
2021/06/12 07:57:07;;;;;;;7.47;4.63;;;24.30;72.90;;;;;;4956172;28;20050;-74
2021/06/12 07:59:34;;;;;;;6.13;4.65;;;24.40;74.40;;;;;;4956951;28;20047;-74
2021/06/12 08:02:00;;;;;;;6.78;5.18;;;24.60;74.00;;;;;;4956795;28;20466;-75
2021/06/12 08:04:27;;;;;;;10.43;4.70;;;24.80;73.50;;;;;;4957203;28;20389;-75
2021/06/12 08:06:53;;;;;;;7.57;5.70;;;25.70;72.10;;;;;;4956941;28;20039;-73
2021/06/12 08:09:19;;;;;;;8.63;4.57;;;25.80;71.10;;;;;;4955951;28;20035;-75
2021/06/12 08:11:46;;;;;;;6.20;4.10;;;26.00;70.80;;;;;;4964472;28;20030;-76
2021/06/12 08:14:12;;;;;;;6.57;4.47;;;27.20;69.60;;;;;;4963079;28;20035;-77
2021/06/12 08:16:38;;;;;;;5.32;4.15;;;28.50;64.90;;;;;;4966949;28;20034;-75
2021/06/12 08:19:05;;;;;;;9.43;4.13;;;29.70;63.10;;;;;;4964530;28;20388;-75
2021/06/12 08:21:31;;;;;;;7.30;4.32;;;28.90;63.70;;;;;;4965732;28;20050;-78
2021/06/12 08:23:57;;;;;;;6.28;4.85;;;28.20;65.40;;;;;;4989002;28;20038;-74
2021/06/12 08:26:24;;;;;;;6.40;4.63;;;27.80;65.70;;;;;;4971382;28;20051;-76
2021/06/12 08:28:51;;;;;;;6.10;4.30;;;26.80;67.70;;;;;;4971522;28;20047;-73
2021/06/12 08:31:17;;;;;;;6.93;4.50;;;26.50;67.20;;;;;;4973231;28;20056;-77
2021/06/12 08:33:43;;;;;;;6.00;4.65;;;26.00;70.40;;;;;;4973688;28;20376;-77
2021/06/12 08:36:10;;;;;;;9.05;4.95;;;26.40;70.30;;;;;;4956676;28;20046;-76
2021/06/12 08:38:36;;;;;;;6.28;4.38;;;27.00;67.60;;;;;;4965899;28;20043;-76
2021/06/12 08:41:03;;;;;;;6.97;5.05;;;27.00;65.40;;;;;;4970146;28;20026;-76
2021/06/12 08:43:30;;;;;;;6.45;4.60;;;26.50;66.20;;;;;;4968724;28;20035;-77
2021/06/12 08:45:58;;;;;;;9.98;4.88;;;26.40;66.60;;;;;;4959975;28;20034;-76
2021/06/12 08:48:26;;;;;;;6.70;4.45;;;26.20;66.90;;;;;;4963536;28;20058;-76
2021/06/12 08:50:53;;;;;;;5.32;3.80;;;26.10;67.60;;;;;;4963564;28;20039;-77
2021/06/12 08:53:20;;;;;;;6.85;4.78;;;26.50;67.50;;;;;;4973920;28;20041;-76
2021/06/12 08:55:47;;;;;;;7.22;4.80;;;27.40;64.30;;;;;;4974453;28;20392;-77
2021/06/12 08:58:14;;;;;;;7.20;4.63;;;26.30;66.60;;;;;;4959876;28;20469;-76
2021/06/12 09:00:42;;;;;;;8.35;4.82;;;26.20;66.50;;;;;;4954946;28;20059;-76
2021/06/12 09:03:10;;;;;;;6.60;4.03;;;26.70;66.40;;;;;;4959973;28;20027;-76
2021/06/12 09:05:56;;;;;;;7.93;5.22;;;27.00;66.40;;;;;;4959371;28;20030;-77
2021/06/12 09:08:25;;;;;;;5.53;4.22;;;27.20;64.50;;;;;;4966446;28;20455;-77
2021/06/12 09:11:01;;;;;;;6.23;3.97;;;27.40;63.90;;;;;;4956580;28;20058;-76
2021/06/12 09:13:58;;;;;;;5.72;3.83;;;27.40;64.00;;;;;;4955726;28;20031;-76
2021/06/12 09:16:27;;;;;;;16.48;5.80;;;27.20;64.40;;;;;;4957563;28;20057;-76
2021/06/12 09:18:56;;;;;;;6.35;4.68;;;26.60;64.80;;;;;;4966083;28;20431;-76
2021/06/12 09:21:26;;;;;;;5.63;4.80;;;26.10;66.40;;;;;;4954338;28;20416;-76
2021/06/12 09:23:53;;;;;;;9.40;5.45;;;25.70;67.60;;;;;;4959319;28;20030;-76
2021/06/12 09:26:21;;;;;;;6.18;4.45;;;25.60;67.50;;;;;;4969487;28;20050;-76
2021/06/12 09:28:55;;;;;;;5.28;4.30;;;26.40;66.80;;;;;;4958674;28;20035;-77
2021/06/12 09:31:27;;;;;;;6.25;4.85;;;26.60;67.50;;;;;;4954386;28;20047;-76
2021/06/12 09:33:56;;;;;;;5.18;3.97;;;26.90;66.10;;;;;;4955188;28;20039;-76
2021/06/12 09:36:33;;;;;;;6.78;4.10;;;27.30;65.60;;;;;;4954252;28;20379;-75
2021/06/12 09:39:11;;;;;;;6.53;4.00;;;27.10;65.00;;;;;;4955330;28;20133;-76
2021/06/12 09:41:41;;;;;;;5.68;3.80;;;27.10;66.10;;;;;;4955480;28;20042;-75
2021/06/12 09:44:08;;;;;;;5.47;4.10;;;27.60;64.40;;;;;;4954747;28;20027;-75
2021/06/12 09:46:35;;;;;;;7.05;3.85;;;26.90;66.40;;;;;;4956243;28;20495;-75
2021/06/12 09:49:03;;;;;;;5.38;4.20;;;27.10;64.70;;;;;;4972306;28;20031;-74
2021/06/12 09:51:30;;;;;;;5.32;3.55;;;27.00;65.50;;;;;;4962581;28;20035;-75
2021/06/12 09:53:59;;;;;;;4.72;3.50;;;27.20;64.80;;;;;;4955019;28;20484;-76
2021/06/12 09:56:26;;;;;;;4.95;3.20;;;27.10;64.80;;;;;;4954235;28;20055;-76
2021/06/12 09:58:53;;;;;;;4.30;2.75;;;26.70;66.00;;;;;;4953891;28;20496;-75
2021/06/12 10:01:23;;;;;;;4.30;2.72;;;27.20;65.50;;;;;;4954473;28;20027;-76
2021/06/12 10:04:07;;;;;;;3.75;2.88;;;28.10;63.40;;;;;;4954446;28;20031;-75
2021/06/12 10:06:34;;;;;;;5.30;3.42;;;27.40;65.20;;;;;;4966197;28;20062;-75
2021/06/12 10:09:02;;;;;;;4.55;3.03;;;26.90;64.20;;;;;;4954225;28;20039;-76
2021/06/12 10:11:31;;;;;;;4.25;2.70;;;26.20;65.90;;;;;;4954673;28;20377;-77
2021/06/12 10:13:59;;;;;;;5.17;2.93;;;26.00;66.90;;;;;;4962630;28;20488;-76
2021/06/12 10:16:27;;;;;;;3.92;2.75;;;26.40;65.60;;;;;;4972692;28;20775;-75
2021/06/12 10:18:55;;;;;;;6.45;2.50;;;26.20;66.20;;;;;;4972912;28;20031;-75
2021/06/12 10:21:22;;;;;;;4.43;2.80;;;26.00;66.10;;;;;;4959689;28;20043;-76
2021/06/12 10:23:50;;;;;;;5.43;2.92;;;26.60;65.50;;;;;;4965777;28;20033;-76
2021/06/12 10:26:21;;;;;;;4.88;2.80;;;26.50;65.90;;;;;;4959295;28;20394;-77
2021/06/12 10:28:48;;;;;;;4.28;2.25;;;26.80;65.70;;;;;;4962637;28;20046;-76
2021/06/12 10:31:23;;;;;;;4.28;1.40;;;27.30;64.10;;;;;;4971456;28;20047;-77
2021/06/12 10:33:55;;;;;;;3.70;1.33;;;27.30;60.40;;;;;;4965023;28;20035;-77
2021/06/12 10:36:26;;;;;;;2.90;1.55;;;27.20;61.10;;;;;;4954123;28;20050;-77
2021/06/12 10:38:55;;;;;;;2.03;1.23;;;26.90;59.90;;;;;;4954159;28;20050;-76
2021/06/12 10:41:23;;;;;;;3.47;1.30;;;26.50;60.80;;;;;;4953643;28;20038;-76
2021/06/12 10:43:53;;;;;;;2.55;1.50;;;26.40;60.60;;;;;;4963578;28;20035;-75
2021/06/12 10:46:23;;;;;;;1.83;1.23;;;26.70;60.50;;;;;;4956710;28;20043;-75
2021/06/12 10:48:55;;;;;;;4.25;1.42;;;27.10;59.50;;;;;;4955984;28;20054;-77
2021/06/12 10:51:27;;;;;;;3.20;1.38;;;26.60;60.50;;;;;;4963155;28;20034;-77
2021/06/12 10:54:28;;;;;;;1.65;1.00;;;27.00;59.70;;;;;;4964092;28;20047;-77
2021/06/12 10:57:00;;;;;;;3.85;1.60;;;27.40;60.30;;;;;;4959410;28;20057;-78
2021/06/12 10:59:41;;;;;;;2.88;1.60;;;27.40;59.30;;;;;;4953397;28;20047;-77
2021/06/12 11:02:23;;;;;;;1.52;1.00;;;27.40;59.30;;;;;;4953722;28;20042;-77
2021/06/12 11:05:04;;;;;;;4.43;1.73;;;27.50;59.20;;;;;;4954258;28;20036;-76
2021/06/12 11:07:37;;;;;;;1.77;1.25;;;27.60;59.40;;;;;;4954092;28;20046;-76
2021/06/12 11:10:10;;;;;;;1.90;0.80;;;27.40;57.60;;;;;;4953495;28;20042;-76
2021/06/12 11:12:38;;;;;;;2.03;0.90;;;27.20;57.40;;;;;;4968986;28;20039;-76
2021/06/12 11:15:09;;;;;;;2.90;1.05;;;27.10;58.10;;;;;;4960348;28;20047;-75
2021/06/12 11:17:43;;;;;;;1.58;0.93;;;27.10;58.20;;;;;;4961661;28;20388;-78
2021/06/12 11:20:12;;;;;;;2.03;0.90;;;27.40;57.60;;;;;;4970325;28;20039;-76
2021/06/12 11:22:54;;;;;;;1.60;1.20;;;27.70;56.20;;;;;;4971874;28;20045;-76
2021/06/12 11:25:27;;;;;;;4.15;1.17;;;27.80;54.40;;;;;;4957001;28;20279;-76
2021/06/12 11:28:15;;;;;;;1.08;0.80;;;27.50;55.70;;;;;;4954366;28;20069;-76
2021/06/12 11:30:42;;;;;;;1.40;0.80;;;27.60;55.70;;;;;;4970748;28;20050;-76
2021/06/12 11:33:09;;;;;;;2.47;0.75;;;28.20;55.80;;;;;;4962676;28;20046;-77
2021/06/12 11:35:56;;;;;;;2.85;0.80;;;28.10;55.20;;;;;;4953715;28;20039;-76
2021/06/12 11:38:34;;;;;;;2.50;1.08;;;27.90;55.30;;;;;;4953320;28;20334;-77
2021/06/12 11:41:13;;;;;;;1.10;0.80;;;28.10;55.50;;;;;;4953580;28;20051;-77
2021/06/12 11:43:50;;;;;;;2.47;0.82;;;27.80;55.30;;;;;;4953304;28;20360;-77
2021/06/12 11:46:33;;;;;;;4.57;1.00;;;27.70;55.60;;;;;;4961240;28;20153;-76
2021/06/12 11:49:02;;;;;;;1.60;0.80;;;27.80;55.80;;;;;;4967809;28;20038;-77
2021/06/12 11:51:32;;;;;;;1.85;0.70;;;27.40;57.10;;;;;;4963344;28;20035;-77
2021/06/12 11:54:21;;;;;;;1.15;0.90;;;27.20;56.60;;;;;;4953485;28;20035;-76
2021/06/12 11:56:57;;;;;;;1.00;0.60;;;27.50;56.70;;;;;;4953945;28;20050;-76
2021/06/12 11:59:27;;;;;;;1.63;0.82;;;27.80;56.20;;;;;;4953305;28;20051;-76
2021/06/12 12:02:00;;;;;;;3.33;0.68;;;27.40;57.20;;;;;;4953401;28;20035;-78
2021/06/12 12:04:42;;;;;;;1.40;0.77;;;27.00;57.20;;;;;;4953174;28;20461;-77
2021/06/12 12:07:10;;;;;;;2.35;0.60;;;26.80;58.30;;;;;;4953039;28;20042;-78
2021/06/12 12:09:40;;;;;;;0.90;0.80;;;27.00;58.10;;;;;;4955952;28;20046;-77
2021/06/12 12:12:11;;;;;;;3.25;0.85;;;27.10;57.60;;;;;;4964367;28;20480;-76
2021/06/12 12:14:44;;;;;;;1.50;0.73;;;27.20;57.10;;;;;;4966415;28;20038;-77
2021/06/12 12:17:29;;;;;;;1.58;0.77;;;27.20;58.50;;;;;;4962436;28;20041;-77
2021/06/12 12:20:03;;;;;;;1.25;0.68;;;27.10;57.30;;;;;;4975577;28;20053;-78
2021/06/12 12:22:50;;;;;;;4.95;0.85;;;27.40;57.20;;;;;;4959323;28;20046;-77
2021/06/12 12:25:24;;;;;;;1.20;0.50;;;27.30;56.20;;;;;;4971776;28;20114;-76
2021/06/12 12:28:07;;;;;;;1.80;0.50;;;27.00;55.30;;;;;;4975917;28;20031;-78
2021/06/12 12:30:36;;;;;;;0.95;0.63;;;26.90;55.80;;;;;;4973578;28;20440;-78
2021/06/12 12:33:07;;;;;;;2.90;0.82;;;27.10;55.10;;;;;;4972428;28;20046;-76
2021/06/12 12:35:34;;;;;;;1.50;0.63;;;27.00;55.10;;;;;;4974971;28;20042;-77
2021/06/12 12:38:16;;;;;;;1.00;0.40;;;26.80;54.90;;;;;;4974787;28;20061;-76
2021/06/12 12:40:44;;;;;;;0.80;0.50;;;26.60;55.30;;;;;;4974911;28;20043;-78
2021/06/12 12:43:13;;;;;;;1.40;0.70;;;27.10;55.40;;;;;;4974535;28;20035;-78
2021/06/12 12:45:44;;;;;;;1.40;0.50;;;27.30;55.70;;;;;;4956151;28;20032;-76
2021/06/12 12:48:15;;;;;;;1.63;0.40;;;27.10;55.70;;;;;;4973914;28;20484;-77
2021/06/12 12:50:42;;;;;;;1.58;0.50;;;27.20;54.60;;;;;;4965500;28;20488;-77